createdAt,value
2024-02-19T00:00:06.322Z,4.34
2024-02-19T00:03:03.424Z,4.39
2024-02-19T00:05:31.320Z,4.35
2024-02-19T00:07:59.465Z,4.24
2024-02-19T00:10:27.082Z,4.06
2024-02-19T00:12:54.739Z,4.01
2024-02-19T00:15:23.397Z,4.02
2024-02-19T00:17:51.511Z,4.09
2024-02-19T00:20:19.348Z,4.19
2024-02-19T00:22:47.524Z,4.25
2024-02-19T00:25:16.720Z,4.27
2024-02-19T00:27:46.289Z,4.30
2024-02-19T00:30:17.480Z,4.31
2024-02-19T00:32:45.708Z,4.26
2024-02-19T00:35:13.320Z,4.16
2024-02-19T00:37:40.873Z,4.00
2024-02-19T00:40:10.517Z,3.88
2024-02-19T00:42:38.761Z,3.73
2024-02-19T00:45:06.933Z,3.69
2024-02-19T00:47:34.696Z,3.61
2024-02-19T00:50:03.242Z,3.53
2024-02-19T00:52:31.174Z,3.56
2024-02-19T00:54:59.302Z,3.65
2024-02-19T00:57:26.781Z,3.78
2024-02-19T00:59:55.367Z,3.86
2024-02-19T01:02:23.900Z,3.92
2024-02-19T01:04:55.795Z,4.02
2024-02-19T01:07:25.575Z,4.08
2024-02-19T01:09:53.534Z,4.10
2024-02-19T01:12:21.739Z,4.07
2024-02-19T01:14:49.657Z,4.03
2024-02-19T01:17:18.672Z,4.07
2024-02-19T01:19:47.418Z,4.04
2024-02-19T01:22:15.972Z,4.04
2024-02-19T01:24:43.967Z,4.09
2024-02-19T01:27:12.661Z,4.14
2024-02-19T01:29:40.225Z,4.13
2024-02-19T01:32:07.999Z,4.13
2024-02-19T01:34:37.569Z,4.17
2024-02-19T01:37:05.433Z,4.21
2024-02-19T01:39:34.986Z,4.24
2024-02-19T01:42:04.171Z,4.26
2024-02-19T01:44:32.683Z,4.25
2024-02-19T01:47:00.979Z,4.23
2024-02-19T01:49:29.463Z,4.22
2024-02-19T01:51:57.542Z,4.19
2024-02-19T01:54:25.391Z,4.16
2024-02-19T01:56:53.703Z,4.16
2024-02-19T01:59:23.194Z,4.22
2024-02-19T02:01:51.217Z,4.25
2024-02-19T02:04:19.620Z,4.20
2024-02-19T02:06:48.567Z,4.17
2024-02-19T02:09:16.874Z,4.15
2024-02-19T02:11:44.200Z,4.14
2024-02-19T02:14:13.076Z,4.07
2024-02-19T02:16:40.701Z,4.04
2024-02-19T02:19:13.016Z,4.07
2024-02-19T02:21:42.166Z,4.11
2024-02-19T02:24:10.276Z,4.12
2024-02-19T02:26:42.476Z,4.06
2024-02-19T02:29:10.266Z,3.92
2024-02-19T02:31:39.392Z,3.86
2024-02-19T02:34:07.357Z,3.87
2024-02-19T02:36:36.318Z,3.93
2024-02-19T02:39:05.178Z,4.00
2024-02-19T02:41:33.310Z,4.06
2024-02-19T02:44:01.292Z,4.01
2024-02-19T02:46:29.687Z,3.96
2024-02-19T02:48:57.908Z,3.95
2024-02-19T02:51:26.540Z,3.98
2024-02-19T02:53:55.194Z,3.95
2024-02-19T02:56:24.787Z,3.95
2024-02-19T02:58:53.785Z,4.01
2024-02-19T03:01:27.076Z,4.06
2024-02-19T03:03:55.224Z,4.09
2024-02-19T03:06:23.173Z,4.09
2024-02-19T03:08:50.899Z,4.06
2024-02-19T03:11:18.760Z,4.02
2024-02-19T03:13:45.649Z,4.05
2024-02-19T03:16:18.247Z,4.08
2024-02-19T03:18:49.362Z,4.10
2024-02-19T03:21:18.554Z,4.09
2024-02-19T03:24:11.580Z,4.07
2024-02-19T03:26:41.646Z,4.10
2024-02-19T03:29:12.401Z,4.10
2024-02-19T03:31:41.979Z,4.16
2024-02-19T03:34:10.121Z,4.11
2024-02-19T03:36:37.523Z,4.09
2024-02-19T03:39:05.082Z,4.05
2024-02-19T03:41:34.439Z,4.03
2024-02-19T03:44:02.792Z,4.01
2024-02-19T03:46:30.950Z,4.03
2024-02-19T03:48:59.239Z,4.03
2024-02-19T03:51:28.720Z,3.96
2024-02-19T03:53:56.649Z,3.85
2024-02-19T03:56:25.362Z,3.76
2024-02-19T03:58:53.908Z,3.67
2024-02-19T04:01:21.981Z,3.63
2024-02-19T04:03:50.144Z,3.69
2024-02-19T04:06:17.633Z,3.77
2024-02-19T04:08:45.047Z,3.80
2024-02-19T04:11:17.085Z,3.71
2024-02-19T04:13:45.461Z,3.63
2024-02-19T04:16:14.211Z,3.67
2024-02-19T04:18:42.099Z,3.72
2024-02-19T04:21:09.609Z,3.79
2024-02-19T04:23:38.842Z,3.87
2024-02-19T04:26:06.859Z,3.93
2024-02-19T04:28:34.810Z,3.97
2024-02-19T04:31:03.053Z,3.97
2024-02-19T04:33:31.951Z,3.92
2024-02-19T04:36:00.145Z,3.95
2024-02-19T04:38:28.022Z,3.93
2024-02-19T04:40:56.833Z,3.97
2024-02-19T04:43:24.652Z,4.02
2024-02-19T04:45:54.879Z,4.04
2024-02-19T04:48:22.961Z,4.07
2024-02-19T04:50:50.636Z,4.08
2024-02-19T04:53:20.116Z,4.09
2024-02-19T04:55:49.666Z,4.10
2024-02-19T04:58:17.818Z,4.11
2024-02-19T05:00:47.177Z,4.13
2024-02-19T05:03:17.916Z,4.12
2024-02-19T05:05:45.778Z,4.14
2024-02-19T05:08:13.381Z,4.19
2024-02-19T05:10:41.636Z,4.23
2024-02-19T05:13:09.582Z,4.26
2024-02-19T05:15:39.005Z,4.29
2024-02-19T05:18:07.016Z,4.31
2024-02-19T05:20:35.851Z,4.31
2024-02-19T05:23:05.924Z,4.30
2024-02-19T05:25:33.724Z,4.29
2024-02-19T05:28:03.596Z,4.31
2024-02-19T05:30:32.063Z,4.31
2024-02-19T05:32:59.256Z,4.27
2024-02-19T05:35:28.730Z,4.18
2024-02-19T05:37:58.317Z,4.06
2024-02-19T05:40:27.761Z,4.01
2024-02-19T05:42:55.770Z,4.01
2024-02-19T05:45:24.120Z,4.00
2024-02-19T05:47:52.429Z,3.96
2024-02-19T05:50:20.181Z,4.00
2024-02-19T05:52:48.497Z,3.99
2024-02-19T05:55:17.904Z,3.94
2024-02-19T05:57:46.060Z,3.94
2024-02-19T06:00:14.463Z,3.94
2024-02-19T06:02:43.579Z,3.96
2024-02-19T06:05:12.278Z,4.00
2024-02-19T06:07:42.297Z,4.06
2024-02-19T06:10:11.571Z,4.07
2024-02-19T06:12:40.165Z,4.00
2024-02-19T06:15:09.414Z,4.00
2024-02-19T06:17:37.192Z,3.97
2024-02-19T06:20:05.612Z,3.93
2024-02-19T06:22:33.581Z,3.93
2024-02-19T06:25:01.621Z,4.00
2024-02-19T06:27:29.910Z,4.10
2024-02-19T06:29:58.487Z,4.20
2024-02-19T06:32:26.614Z,4.29
2024-02-19T06:34:55.969Z,4.36
2024-02-19T06:37:24.822Z,4.43
2024-02-19T06:39:52.842Z,4.53
2024-02-19T06:42:21.993Z,4.62
2024-02-19T06:44:49.234Z,4.68
2024-02-19T06:47:17.082Z,4.71
2024-02-19T06:49:45.521Z,4.75
2024-02-19T06:52:23.405Z,4.80
2024-02-19T06:54:52.592Z,4.84
2024-02-19T06:57:23.995Z,4.92
2024-02-19T07:00:10.598Z,4.95
2024-02-19T07:02:40.815Z,5.03
2024-02-19T07:05:09.808Z,5.08
2024-02-19T07:07:39.476Z,5.10
2024-02-19T07:10:12.478Z,5.11
2024-02-19T07:13:05.139Z,4.99
2024-02-19T07:15:40.461Z,4.98
2024-02-19T07:18:18.714Z,5.07
2024-02-19T07:20:59.689Z,5.10
2024-02-19T07:23:35.158Z,5.14
2024-02-19T07:26:30.398Z,5.14
2024-02-19T07:29:02.243Z,5.13
2024-02-19T07:31:31.000Z,5.07
2024-02-19T07:34:01.447Z,5.12
2024-02-19T07:36:29.488Z,5.22
2024-02-19T07:38:58.072Z,5.28
2024-02-19T07:41:30.914Z,5.34
2024-02-19T07:43:58.921Z,5.31
2024-02-19T07:46:26.747Z,5.01
2024-02-19T07:48:54.870Z,5.21
2024-02-19T07:51:24.017Z,5.41
2024-02-19T07:53:53.332Z,5.52
2024-02-19T07:56:28.188Z,5.61
2024-02-19T07:58:58.050Z,5.71
2024-02-19T08:01:27.053Z,5.84
2024-02-19T08:03:56.114Z,5.91
2024-02-19T08:06:25.616Z,5.96
2024-02-19T08:08:54.073Z,5.96
2024-02-19T08:11:31.470Z,5.77
2024-02-19T08:13:58.848Z,5.82
2024-02-19T08:16:28.765Z,5.97
2024-02-19T08:18:56.406Z,6.10
2024-02-19T08:21:34.407Z,6.22
2024-02-19T08:24:11.550Z,6.24
2024-02-19T08:26:51.799Z,6.25
2024-02-19T08:29:23.085Z,6.01
2024-02-19T08:31:53.981Z,6.13
2024-02-19T08:34:55.900Z,6.33
2024-02-19T08:37:30.267Z,6.51
2024-02-19T08:40:41.038Z,6.60
2024-02-19T08:43:17.420Z,6.81
2024-02-19T08:45:51.142Z,6.87
2024-02-19T08:48:23.500Z,6.96
2024-02-19T08:50:59.824Z,7.02
2024-02-19T08:53:30.220Z,7.03
2024-02-19T08:55:59.542Z,7.02
2024-02-19T08:58:31.999Z,6.96
2024-02-19T09:01:02.078Z,7.03
2024-02-19T09:03:31.699Z,7.12
2024-02-19T09:06:17.493Z,7.24
2024-02-19T09:08:52.833Z,7.18
2024-02-19T09:11:21.589Z,7.34
2024-02-19T09:13:50.339Z,7.67
2024-02-19T09:16:18.548Z,7.95
2024-02-19T09:18:48.981Z,8.19
2024-02-19T09:21:16.411Z,8.39
2024-02-19T09:23:49.379Z,8.49
2024-02-19T09:26:22.184Z,8.80
2024-02-19T09:28:52.389Z,9.08
2024-02-19T09:31:25.763Z,9.25
2024-02-19T09:34:00.780Z,9.71
2024-02-19T09:36:38.005Z,9.64
2024-02-19T09:39:07.458Z,9.36
2024-02-19T09:41:50.496Z,9.31
2024-02-19T09:44:20.198Z,9.32
2024-02-19T09:46:59.198Z,9.29
2024-02-19T09:49:29.288Z,9.19
2024-02-19T09:52:00.609Z,9.09
2024-02-19T09:54:29.413Z,9.32
2024-02-19T09:57:06.080Z,9.47
2024-02-19T09:59:34.726Z,9.89
2024-02-19T10:02:02.441Z,10.24
2024-02-19T10:04:35.390Z,9.96
2024-02-19T10:07:09.169Z,10.12
2024-02-19T10:09:37.427Z,10.28
2024-02-19T10:12:10.038Z,10.52
2024-02-19T10:14:42.701Z,10.60
2024-02-19T10:17:13.068Z,10.73
2024-02-19T10:19:43.809Z,11.11
2024-02-19T10:22:13.176Z,11.41
2024-02-19T10:24:45.080Z,11.21
2024-02-19T10:27:12.675Z,10.73
2024-02-19T10:29:40.004Z,10.77
2024-02-19T10:32:07.874Z,11.08
2024-02-19T10:34:36.318Z,10.99
2024-02-19T10:37:06.113Z,10.80
2024-02-19T10:39:35.053Z,10.58
2024-02-19T10:42:04.911Z,10.13
2024-02-19T10:44:35.767Z,10.46
2024-02-19T10:47:04.807Z,10.42
2024-02-19T10:49:33.647Z,10.54
2024-02-19T10:52:01.642Z,10.73
2024-02-19T10:54:32.340Z,10.64
2024-02-19T10:57:09.975Z,10.87
2024-02-19T10:59:41.423Z,11.00
2024-02-19T11:02:24.190Z,11.48
2024-02-19T11:04:55.284Z,11.25
2024-02-19T11:07:34.076Z,11.44
2024-02-19T11:10:05.255Z,11.30
2024-02-19T11:12:35.139Z,11.17
2024-02-19T11:15:15.004Z,10.72
2024-02-19T11:17:47.510Z,10.36
2024-02-19T11:20:25.686Z,10.26
2024-02-19T11:22:59.659Z,10.35
2024-02-19T11:25:34.022Z,10.85
2024-02-19T11:28:06.026Z,10.67
2024-02-19T11:30:37.148Z,10.56
2024-02-19T11:33:13.523Z,10.61
2024-02-19T11:35:47.608Z,11.00
2024-02-19T11:38:33.707Z,11.39
2024-02-19T11:41:07.821Z,11.38
2024-02-19T11:43:39.644Z,11.23
2024-02-19T11:46:11.090Z,11.04
2024-02-19T11:48:42.602Z,10.17
2024-02-19T11:51:12.941Z,10.57
2024-02-19T11:53:44.286Z,10.29
2024-02-19T11:56:20.402Z,10.30
2024-02-19T11:58:55.891Z,10.65
2024-02-19T12:01:28.115Z,10.98
2024-02-19T12:03:58.477Z,10.94
2024-02-19T12:06:30.786Z,10.86
2024-02-19T12:09:05.359Z,10.74
2024-02-19T12:11:42.437Z,10.62
2024-02-19T12:14:18.183Z,10.94
2024-02-19T12:16:48.020Z,11.26
2024-02-19T12:19:18.737Z,11.00
2024-02-19T12:21:56.404Z,10.60
2024-02-19T12:24:28.033Z,10.04
2024-02-19T12:26:57.622Z,9.93
2024-02-19T12:29:27.744Z,9.91
2024-02-19T12:31:57.689Z,9.68
2024-02-19T12:34:29.335Z,9.73
2024-02-19T12:37:00.629Z,9.91
2024-02-19T12:39:32.650Z,10.23
2024-02-19T12:42:03.782Z,10.09
2024-02-19T12:44:37.687Z,10.28
2024-02-19T12:47:07.421Z,10.70
2024-02-19T12:49:40.668Z,11.15
2024-02-19T12:52:15.711Z,11.52
2024-02-19T12:54:48.976Z,11.64
2024-02-19T12:57:27.427Z,11.47
2024-02-19T13:00:09.394Z,10.90
2024-02-19T13:02:38.617Z,10.82
2024-02-19T13:05:15.631Z,10.85
2024-02-19T13:07:50.944Z,11.19
2024-02-19T13:10:25.028Z,11.00
2024-02-19T13:12:58.020Z,10.86
2024-02-19T13:15:31.137Z,11.07
2024-02-19T13:18:01.146Z,10.97
2024-02-19T13:20:37.842Z,10.52
2024-02-19T13:23:09.404Z,10.26
2024-02-19T13:25:41.604Z,10.06
2024-02-19T13:28:13.964Z,9.77
2024-02-19T13:30:44.215Z,9.68
2024-02-19T13:33:19.755Z,9.40
2024-02-19T13:35:52.831Z,9.28
2024-02-19T13:38:30.435Z,9.22
2024-02-19T13:41:03.977Z,9.24
2024-02-19T13:43:34.058Z,9.17
2024-02-19T13:46:08.245Z,9.32
2024-02-19T13:48:37.596Z,9.48
2024-02-19T13:51:06.860Z,9.44
2024-02-19T13:53:38.718Z,9.23
2024-02-19T13:56:08.773Z,9.11
2024-02-19T13:58:37.626Z,9.24
2024-02-19T14:01:06.790Z,9.06
2024-02-19T14:03:42.856Z,8.93
2024-02-19T14:06:16.636Z,8.72
2024-02-19T14:08:50.782Z,8.73
2024-02-19T14:11:27.801Z,8.77
2024-02-19T14:14:02.338Z,8.78
2024-02-19T14:16:41.762Z,8.78
2024-02-19T14:19:13.561Z,8.80
2024-02-19T14:21:44.981Z,8.77
2024-02-19T14:24:17.249Z,8.62
2024-02-19T14:26:47.043Z,8.54
2024-02-19T14:29:17.838Z,8.56
2024-02-19T14:31:53.124Z,8.59
2024-02-19T14:34:27.119Z,8.65
2024-02-19T14:37:02.584Z,8.73
2024-02-19T14:39:33.664Z,8.79
2024-02-19T14:42:10.771Z,8.93
2024-02-19T14:44:43.390Z,9.06
2024-02-19T14:47:43.496Z,9.13
2024-02-19T14:50:13.779Z,9.15
2024-02-19T14:52:52.474Z,9.18
2024-02-19T14:55:23.546Z,9.17
2024-02-19T14:57:56.529Z,9.15
2024-02-19T15:00:24.133Z,9.12
2024-02-19T15:02:56.050Z,9.04
2024-02-19T15:05:25.993Z,8.96
2024-02-19T15:07:55.801Z,8.96
2024-02-19T15:10:27.533Z,9.01
2024-02-19T15:12:56.342Z,8.93
2024-02-19T15:15:25.006Z,8.78
2024-02-19T15:17:53.009Z,8.71
2024-02-19T15:20:22.372Z,8.66
2024-02-19T15:22:50.798Z,8.62
2024-02-19T15:25:19.635Z,8.59
2024-02-19T15:27:48.452Z,8.56
2024-02-19T15:30:17.018Z,8.53
2024-02-19T15:32:44.874Z,8.49
2024-02-19T15:35:13.142Z,8.44
2024-02-19T15:37:41.171Z,8.43
2024-02-19T15:40:10.159Z,8.37
2024-02-19T15:42:38.034Z,8.31
2024-02-19T15:45:07.230Z,8.28
2024-02-19T15:47:35.135Z,8.26
2024-02-19T15:50:06.808Z,8.22
2024-02-19T15:52:35.949Z,8.16
2024-02-19T15:55:05.077Z,8.10
2024-02-19T15:57:32.759Z,8.02
2024-02-19T16:00:02.469Z,7.96
2024-02-19T16:02:34.293Z,7.93
2024-02-19T16:05:01.860Z,7.88
2024-02-19T16:07:30.520Z,7.84
2024-02-19T16:09:59.205Z,7.78
2024-02-19T16:12:28.336Z,7.73
2024-02-19T16:14:56.755Z,7.66
2024-02-19T16:17:24.788Z,7.61
2024-02-19T16:19:54.232Z,7.55
2024-02-19T16:22:23.174Z,7.49
2024-02-19T16:24:51.071Z,7.43
2024-02-19T16:27:18.968Z,7.32
2024-02-19T16:29:46.302Z,7.25
2024-02-19T16:32:17.839Z,7.16
2024-02-19T16:34:45.251Z,7.09
2024-02-19T16:37:13.632Z,7.00
2024-02-19T16:39:46.685Z,6.93
2024-02-19T16:42:14.065Z,6.84
2024-02-19T16:44:42.036Z,6.81
2024-02-19T16:47:10.056Z,6.80
2024-02-19T16:49:37.594Z,6.76
2024-02-19T16:52:05.101Z,6.72
2024-02-19T16:54:32.992Z,6.68
2024-02-19T16:57:01.705Z,6.62
2024-02-19T16:59:29.508Z,6.61
2024-02-19T17:01:57.696Z,6.64
2024-02-19T17:04:25.474Z,6.68
2024-02-19T17:06:55.287Z,6.72
2024-02-19T17:09:23.656Z,6.72
2024-02-19T17:11:51.329Z,6.69
2024-02-19T17:14:19.941Z,6.68
2024-02-19T17:16:52.036Z,6.65
2024-02-19T17:19:21.362Z,6.58
2024-02-19T17:21:50.427Z,6.54
2024-02-19T17:24:17.584Z,6.52
2024-02-19T17:26:46.228Z,6.51
2024-02-19T17:29:14.127Z,6.52
2024-02-19T17:31:43.269Z,6.50
2024-02-19T17:34:12.318Z,6.44
2024-02-19T17:36:42.484Z,6.35
2024-02-19T17:39:12.526Z,6.29
2024-02-19T17:41:41.295Z,6.22
2024-02-19T17:44:11.361Z,6.12
2024-02-19T17:46:38.464Z,6.06
2024-02-19T17:49:11.171Z,6.09
2024-02-19T17:51:38.356Z,6.15
2024-02-19T17:54:09.898Z,6.21
2024-02-19T17:56:40.834Z,6.25
2024-02-19T17:59:10.823Z,6.29
2024-02-19T18:01:39.661Z,6.29
2024-02-19T18:04:08.149Z,6.29
2024-02-19T18:06:37.233Z,6.30
2024-02-19T18:09:05.027Z,6.22
2024-02-19T18:11:34.035Z,6.10
2024-02-19T18:14:01.690Z,6.03
2024-02-19T18:16:30.719Z,5.99
2024-02-19T18:19:00.558Z,5.93
2024-02-19T18:21:29.194Z,5.86
2024-02-19T18:23:58.763Z,5.79
2024-02-19T18:26:28.358Z,5.68
2024-02-19T18:28:58.162Z,5.56
2024-02-19T18:31:29.280Z,5.50
2024-02-19T18:33:58.077Z,5.50
2024-02-19T18:36:27.106Z,5.48
2024-02-19T18:38:55.006Z,5.45
2024-02-19T18:41:24.792Z,5.44
2024-02-19T18:43:52.823Z,5.45
2024-02-19T18:46:22.494Z,5.45
2024-02-19T18:49:01.675Z,5.41
2024-02-19T18:51:29.580Z,5.40
2024-02-19T18:53:57.164Z,5.40
2024-02-19T18:56:26.772Z,5.39
2024-02-19T18:58:55.173Z,5.31
2024-02-19T19:01:22.968Z,5.26
2024-02-19T19:03:50.808Z,5.19
2024-02-19T19:06:18.486Z,5.17
2024-02-19T19:08:46.696Z,5.19
2024-02-19T19:11:14.785Z,5.23
2024-02-19T19:13:44.573Z,5.22
2024-02-19T19:16:12.918Z,5.24
2024-02-19T19:18:41.133Z,5.28
2024-02-19T19:21:09.409Z,5.33
2024-02-19T19:23:37.675Z,5.38
2024-02-19T19:26:06.188Z,5.39
2024-02-19T19:28:33.936Z,5.31
2024-02-19T19:31:02.625Z,5.22
2024-02-19T19:33:31.055Z,5.14
2024-02-19T19:35:59.428Z,5.03
2024-02-19T19:38:26.878Z,4.92
2024-02-19T19:40:57.846Z,4.88
2024-02-19T19:43:26.984Z,4.87
2024-02-19T19:45:57.210Z,4.86
2024-02-19T19:48:28.978Z,4.82
2024-02-19T19:50:57.691Z,4.81
2024-02-19T19:53:27.064Z,4.84
2024-02-19T19:55:56.276Z,4.82
2024-02-19T19:58:31.868Z,4.75
2024-02-19T20:01:00.659Z,4.73
2024-02-19T20:03:29.296Z,4.73
2024-02-19T20:05:59.407Z,4.73
2024-02-19T20:08:27.361Z,4.69
2024-02-19T20:10:56.318Z,4.66
2024-02-19T20:13:24.151Z,4.62
2024-02-19T20:15:53.768Z,4.53
2024-02-19T20:18:29.062Z,4.48
2024-02-19T20:20:57.230Z,4.43
2024-02-19T20:23:26.986Z,4.43
2024-02-19T20:25:57.682Z,4.43
2024-02-19T20:28:25.258Z,4.38
2024-02-19T20:30:54.613Z,4.37
2024-02-19T20:33:22.900Z,4.38
2024-02-19T20:35:50.376Z,4.32
2024-02-19T20:38:18.261Z,4.26
2024-02-19T20:40:45.810Z,4.22
2024-02-19T20:43:13.457Z,4.15
2024-02-19T20:45:42.116Z,4.11
2024-02-19T20:48:10.905Z,4.09
2024-02-19T20:50:39.564Z,4.07
2024-02-19T20:53:10.158Z,4.08
2024-02-19T20:55:38.072Z,4.11
2024-02-19T20:58:07.483Z,4.11
2024-02-19T21:00:36.148Z,4.12
2024-02-19T21:03:04.013Z,4.10
2024-02-19T21:05:32.873Z,4.06
2024-02-19T21:08:00.851Z,4.03
2024-02-19T21:10:28.899Z,3.97
2024-02-19T21:12:59.739Z,3.86
2024-02-19T21:15:28.105Z,3.63
2024-02-19T21:17:56.011Z,3.57
2024-02-19T21:20:24.063Z,3.59
2024-02-19T21:22:52.289Z,3.63
2024-02-19T21:25:20.325Z,3.64
2024-02-19T21:27:49.318Z,3.59
2024-02-19T21:30:16.542Z,3.60
2024-02-19T21:32:46.764Z,3.59
2024-02-19T21:35:18.326Z,3.52
2024-02-19T21:37:48.387Z,3.52
2024-02-19T21:40:17.894Z,3.49
2024-02-19T21:42:45.182Z,3.44
2024-02-19T21:45:14.564Z,3.46
2024-02-19T21:47:42.789Z,3.48
2024-02-19T21:50:11.505Z,3.52
2024-02-19T21:52:40.794Z,3.53
2024-02-19T21:55:09.399Z,3.47
2024-02-19T21:57:38.014Z,3.45
2024-02-19T22:00:09.052Z,3.43
2024-02-19T22:02:36.608Z,3.40
2024-02-19T22:05:05.736Z,3.29
2024-02-19T22:07:34.725Z,3.24
2024-02-19T22:10:03.439Z,3.27
2024-02-19T22:12:32.963Z,3.30
2024-02-19T22:15:01.966Z,3.27
2024-02-19T22:17:30.377Z,3.27
2024-02-19T22:19:58.658Z,3.32
2024-02-19T22:22:27.696Z,3.30
2024-02-19T22:24:55.986Z,3.30
2024-02-19T22:27:23.877Z,3.26
2024-02-19T22:29:51.764Z,3.25
2024-02-19T22:32:20.359Z,3.24
2024-02-19T22:34:47.991Z,3.18
2024-02-19T22:37:16.822Z,3.15
2024-02-19T22:39:45.209Z,3.14
2024-02-19T22:42:14.329Z,3.11
2024-02-19T22:44:43.785Z,3.03
2024-02-19T22:47:11.865Z,2.99
2024-02-19T22:49:40.356Z,3.00
2024-02-19T22:52:10.026Z,2.94
2024-02-19T22:54:44.141Z,2.88
2024-02-19T22:57:12.303Z,2.83
2024-02-19T22:59:50.933Z,2.79
2024-02-19T23:02:19.297Z,2.80
2024-02-19T23:04:48.554Z,2.81
2024-02-19T23:07:18.023Z,2.81
2024-02-19T23:09:48.537Z,2.82
2024-02-19T23:12:16.897Z,2.83
2024-02-19T23:14:44.861Z,2.89
2024-02-19T23:17:12.833Z,2.94
2024-02-19T23:19:40.414Z,2.97
2024-02-19T23:22:08.350Z,2.98
2024-02-19T23:24:36.486Z,2.96
2024-02-19T23:27:05.192Z,2.83
2024-02-19T23:29:34.024Z,2.77
2024-02-19T23:32:01.429Z,2.77
2024-02-19T23:34:30.921Z,2.80
2024-02-19T23:37:01.213Z,2.81
2024-02-19T23:39:28.911Z,2.84
2024-02-19T23:41:57.710Z,2.86
2024-02-19T23:44:27.073Z,2.77
2024-02-19T23:46:54.664Z,2.69
2024-02-19T23:49:23.163Z,2.65
2024-02-19T23:51:51.865Z,2.58
2024-02-19T23:54:21.326Z,2.53
2024-02-19T23:56:48.909Z,2.56
2024-02-19T23:59:16.321Z,2.63
